Map

Track Data

SID SEASON NUMBER BASIN SUBBASIN NAME ISO_TIME NATURE LAT LON WMO_WIND WMO_PRES WMO_AGENCY TRACK_TYPE DIST2LAND LANDFALL IFLAG USA_AGENCY USA_ATCF_ID USA_LAT USA_LON USA_RECORD USA_STATUS USA_WIND USA_PRES USA_SSHS USA_R34_NE USA_R34_SE USA_R34_SW USA_R34_NW USA_R50_NE USA_R50_SE USA_R50_SW USA_R50_NW USA_R64_NE USA_R64_SE USA_R64_SW USA_R64_NW USA_POCI USA_ROCI USA_RMW USA_EYE TOKYO_LAT TOKYO_LON TOKYO_GRADE TOKYO_WIND TOKYO_PRES TOKYO_R50_DIR TOKYO_R50_LONG TOKYO_R50_SHORT TOKYO_R30_DIR TOKYO_R30_LONG TOKYO_R30_SHORT TOKYO_LAND CMA_LAT CMA_LON CMA_CAT CMA_WIND CMA_PRES HKO_LAT HKO_LON HKO_CAT HKO_WIND HKO_PRES NEWDELHI_LAT NEWDELHI_LON NEWDELHI_GRADE NEWDELHI_WIND NEWDELHI_PRES NEWDELHI_CI NEWDELHI_DP NEWDELHI_POCI REUNION_LAT REUNION_LON REUNION_TYPE REUNION_WIND REUNION_PRES REUNION_TNUM REUNION_CI REUNION_RMW REUNION_R34_NE REUNION_R34_SE REUNION_R34_SW REUNION_R34_NW REUNION_R50_NE REUNION_R50_SE REUNION_R50_SW REUNION_R50_NW REUNION_R64_NE REUNION_R64_SE REUNION_R64_SW REUNION_R64_NW BOM_LAT BOM_LON BOM_TYPE BOM_WIND BOM_PRES BOM_TNUM BOM_CI BOM_RMW BOM_R34_NE BOM_R34_SE BOM_R34_SW BOM_R34_NW BOM_R50_NE BOM_R50_SE BOM_R50_SW BOM_R50_NW BOM_R64_NE BOM_R64_SE BOM_R64_SW BOM_R64_NW BOM_ROCI BOM_POCI BOM_EYE BOM_POS_METHOD BOM_PRES_METHOD NADI_LAT NADI_LON NADI_CAT NADI_WIND NADI_PRES WELLINGTON_LAT WELLINGTON_LON WELLINGTON_WIND WELLINGTON_PRES DS824_LAT DS824_LON DS824_STAGE DS824_WIND DS824_PRES TD9636_LAT TD9636_LON TD9636_STAGE TD9636_WIND TD9636_PRES TD9635_LAT TD9635_LON TD9635_WIND TD9635_PRES TD9635_ROCI NEUMANN_LAT NEUMANN_LON NEUMANN_CLASS NEUMANN_WIND NEUMANN_PRES MLC_LAT MLC_LON MLC_CLASS MLC_WIND MLC_PRES USA_GUST BOM_GUST BOM_GUST_PER REUNION_GUST REUNION_GUST_PER USA_SEAHGT USA_SEARAD_NE USA_SEARAD_SE USA_SEARAD_SW USA_SEARAD_NW STORM_SPEED STORM_DIR
1884215N13130 1884 23 WP MM NOT_NAMED 1884-08-01 16:00:00 NR 12.7000 129.700 main 459 403 __________O___ -1 12.7000 129.700 7 22 307
1884215N13130 1884 23 WP MM NOT_NAMED 1884-08-01 18:00:00 NR 13.1432 129.091 main 403 343 __________P___ -1 13.1432 129.091 7 22 307
1884215N13130 1884 23 WP MM NOT_NAMED 1884-08-01 21:00:00 NR 13.7843 128.210 main 343 319 __________P___ -1 13.7843 128.210 7 20 307
1884215N13130 1884 23 WP MM NOT_NAMED 1884-08-02 00:00:00 NR 14.3675 127.418 main 319 277 __________P___ -1 14.3675 127.418 7 18 308
1884215N13130 1884 23 WP MM NOT_NAMED 1884-08-02 03:00:00 NR 14.8609 126.773 main 281 267 __________P___ -1 14.8609 126.773 7 15 309
1884215N13130 1884 23 WP MM NOT_NAMED 1884-08-02 04:00:00 NR 15.0000 126.600 main 267 251 __________O___ -1 15.0000 126.600 7 11 311
1884215N13130 1884 23 WP MM NOT_NAMED 1884-08-02 06:00:00 NR 15.2370 126.326 main 251 248 __________P___ -1 15.2370 126.326 7 9 315
1884215N13130 1884 23 WP MM NOT_NAMED 1884-08-02 09:00:00 NR 15.5116 126.061 main 256 248 __________P___ -1 15.5116 126.061 7 6 321
1884215N13130 1884 23 WP MM NOT_NAMED 1884-08-02 12:00:00 NR 15.7279 125.916 main 256 256 __________P___ -1 15.7279 125.916 7 5 332
1884215N13130 1884 23 WP MM NOT_NAMED 1884-08-02 15:00:00 NR 15.9289 125.828 main 266 266 __________P___ -1 15.9289 125.828 7 4 338
1884215N13130 1884 23 WP MM NOT_NAMED 1884-08-02 16:00:00 NR 16.0000 125.800 main 275 275 __________O___ -1 16.0000 125.800 7 6 333
1884215N13130 1884 23 WP MM NOT_NAMED 1884-08-02 18:00:00 NR 16.1749 125.699 main 288 288 __________P___ -1 16.1749 125.699 7 6 333
1884215N13130 1884 23 WP MM NOT_NAMED 1884-08-02 21:00:00 NR 16.4436 125.567 main 302 308 __________P___ -1 16.4436 125.567 7 6 336
1884215N13130 1884 23 WP MM NOT_NAMED 1884-08-03 00:00:00 NR 16.7199 125.450 main 320 297 __________P___ -1 16.7199 125.450 7 6 339
1884215N13130 1884 23 WP MM NOT_NAMED 1884-08-03 03:00:00 NR 17.0037 125.338 main 297 297 __________P___ -1 17.0037 125.338 7 6 340
1884215N13130 1884 23 WP MM NOT_NAMED 1884-08-03 04:00:00 NR 17.1000 125.300 main 297 287 __________O___ -1 17.1000 125.300 7 6 336
1884215N13130 1884 23 WP MM NOT_NAMED 1884-08-03 06:00:00 NR 17.2917 125.209 main 288 279 __________P___ -1 17.2917 125.209 7 6 336
1884215N13130 1884 23 WP MM NOT_NAMED 1884-08-03 09:00:00 NR 17.5855 125.072 main 284 273 __________P___ -1 17.5855 125.072 7 7 337
1884215N13130 1884 23 WP MM NOT_NAMED 1884-08-03 12:00:00 NR 17.8867 124.943 main 273 264 __________P___ -1 17.8867 124.943 7 7 339
1884215N13130 1884 23 WP MM NOT_NAMED 1884-08-03 15:00:00 NR 18.1954 124.832 main 264 263 __________P___ -1 18.1954 124.832 7 7 342
1884215N13130 1884 23 WP MM NOT_NAMED 1884-08-03 16:00:00 NR 18.3000 124.800 main 263 253 __________O___ -1 18.3000 124.800 7 6 346
1884215N13130 1884 23 WP MM NOT_NAMED 1884-08-03 18:00:00 NR 18.5031 124.747 main 253 253 __________P___ -1 18.5031 124.747 7 6 348
1884215N13130 1884 23 WP MM NOT_NAMED 1884-08-03 21:00:00 NR 18.8138 124.686 main 256 254 __________P___ -1 18.8138 124.686 7 6 351
1884215N13130 1884 23 WP MM NOT_NAMED 1884-08-04 00:00:00 NR 19.1375 124.642 main 254 258 __________P___ -1 19.1375 124.642 7 7 354
1884215N13130 1884 23 WP MM NOT_NAMED 1884-08-04 03:00:00 NR 19.4804 124.610 main 271 271 __________P___ -1 19.4804 124.610 7 7 354
1884215N13130 1884 23 WP MM NOT_NAMED 1884-08-04 04:00:00 NR 19.6000 124.600 main 276 276 __________O___ -1 19.6000 124.600 7 8 355
1884215N13130 1884 23 WP MM NOT_NAMED 1884-08-04 06:00:00 NR 19.8626 124.572 main 294 294 __________P___ -1 19.8626 124.572 7 8 355
1884215N13130 1884 23 WP MM NOT_NAMED 1884-08-04 09:00:00 NR 20.2758 124.537 main 313 313 __________P___ -1 20.2758 124.537 7 8 356
1884215N13130 1884 23 WP MM NOT_NAMED 1884-08-04 12:00:00 NR 20.6899 124.512 main 345 345 __________P___ -1 20.6899 124.512 7 8 357
1884215N13130 1884 23 WP MM NOT_NAMED 1884-08-04 15:00:00 NR 21.0797 124.500 main 379 379 __________P___ -1 21.0797 124.500 7 8 0
1884215N13130 1884 23 WP MM NOT_NAMED 1884-08-04 16:00:00 NR 21.2000 124.500 main 380 371 __________O___ -1 21.2000 124.500 7 7 4
1884215N13130 1884 23 WP MM NOT_NAMED 1884-08-04 18:00:00 NR 21.4145 124.505 main 371 354 __________P___ -1 21.4145 124.505 7 6 2
1884215N13130 1884 23 WP MM NOT_NAMED 1884-08-04 21:00:00 NR 21.7048 124.526 main 354 345 __________P___ -1 21.7048 124.526 7 6 4
1884215N13130 1884 23 WP MM NOT_NAMED 1884-08-05 00:00:00 NR 21.9684 124.556 main 350 343 __________P___ -1 21.9684 124.556 7 5 6
1884215N13130 1884 23 WP MM NOT_NAMED 1884-08-05 03:00:00 NR 22.2178 124.589 main 343 340 __________P___ -1 22.2178 124.589 7 5 6
1884215N13130 1884 23 WP MM NOT_NAMED 1884-08-05 04:00:00 NR 22.3000 124.600 main 340 334 __________O___ -1 22.3000 124.600 7 5 6
1884215N13130 1884 23 WP MM NOT_NAMED 1884-08-05 06:00:00 NR 22.4697 124.612 main 334 330 __________P___ -1 22.4697 124.612 7 5 3
1884215N13130 1884 23 WP MM NOT_NAMED 1884-08-05 09:00:00 NR 22.7180 124.629 main 330 321 __________P___ -1 22.7180 124.629 7 5 4
1884215N13130 1884 23 WP MM NOT_NAMED 1884-08-05 12:00:00 NR 22.9642 124.651 main 330 319 __________P___ -1 22.9642 124.651 7 5 7
1884215N13130 1884 23 WP MM NOT_NAMED 1884-08-05 15:00:00 NR 23.2145 124.685 main 319 314 __________P___ -1 23.2145 124.685 7 5 7
1884215N13130 1884 23 WP MM NOT_NAMED 1884-08-05 16:00:00 NR 23.3000 124.700 main 314 305 __________O___ -1 23.3000 124.700 7 5 12
1884215N13130 1884 23 WP MM NOT_NAMED 1884-08-05 18:00:00 NR 23.4829 124.739 main 305 304 __________P___ -1 23.4829 124.739 7 6 12
1884215N13130 1884 23 WP MM NOT_NAMED 1884-08-05 21:00:00 NR 23.7636 124.809 main 304 301 __________P___ -1 23.7636 124.809 7 6 14
1884215N13130 1884 23 WP MM NOT_NAMED 1884-08-06 00:00:00 NR 24.0437 124.889 main 309 305 __________P___ -1 24.0437 124.889 7 6 15
1884215N13130 1884 23 WP MM NOT_NAMED 1884-08-06 03:00:00 NR 24.3138 124.973 main 312 310 __________P___ -1 24.3138 124.973 7 6 16
1884215N13130 1884 23 WP MM NOT_NAMED 1884-08-06 04:00:00 NR 24.4000 125.000 main 310 305 __________O___ -1 24.4000 125.000 7 5 15
1884215N13130 1884 23 WP MM NOT_NAMED 1884-08-06 06:00:00 NR 24.5640 125.053 main 315 313 __________P___ -1 24.5640 125.053 7 5 17
1884215N13130 1884 23 WP MM NOT_NAMED 1884-08-06 09:00:00 NR 24.7975 125.132 main 313 313 __________P___ -1 24.7975 125.132 7 5 17
1884215N13130 1884 23 WP MM NOT_NAMED 1884-08-06 12:00:00 NR 25.0188 125.208 main 322 322 __________P___ -1 25.0188 125.208 7 5 17
1884215N13130 1884 23 WP MM NOT_NAMED 1884-08-06 15:00:00 NR 25.2308 125.278 main 332 332 __________P___ -1 25.2308 125.278 7 4 17
1884215N13130 1884 23 WP MM NOT_NAMED 1884-08-06 16:00:00 NR 25.3000 125.300 main 333 333 __________O___ -1 25.3000 125.300 7 4 16
1884215N13130 1884 23 WP MM NOT_NAMED 1884-08-06 18:00:00 NR 25.4390 125.334 main 334 336 __________P___ -1 25.4390 125.334 7 4 11
1884215N13130 1884 23 WP MM NOT_NAMED 1884-08-06 21:00:00 NR 25.6412 125.378 main 348 350 __________P___ -1 25.6412 125.378 7 4 11
1884215N13130 1884 23 WP MM NOT_NAMED 1884-08-07 00:00:00 NR 25.8387 125.423 main 352 352 __________P___ -1 25.8387 125.423 7 4 13
1884215N13130 1884 23 WP MM NOT_NAMED 1884-08-07 03:00:00 NR 26.0345 125.478 main 368 368 __________P___ -1 26.0345 125.478 7 4 16
1884215N13130 1884 23 WP MM NOT_NAMED 1884-08-07 04:00:00 NR 26.1000 125.500 main 371 371 __________O___ -1 26.1000 125.500 7 4 18
1884215N13130 1884 23 WP MM NOT_NAMED 1884-08-07 06:00:00 NR 26.2333 125.555 main 384 384 __________P___ -1 26.2333 125.555 7 4 22
1884215N13130 1884 23 WP MM NOT_NAMED 1884-08-07 09:00:00 NR 26.4334 125.651 main 402 402 __________P___ -1 26.4334 125.651 7 4 24
1884215N13130 1884 23 WP MM NOT_NAMED 1884-08-07 12:00:00 NR 26.6334 125.756 main 420 420 __________P___ -1 26.6334 125.756 7 4 25
1884215N13130 1884 23 WP MM NOT_NAMED 1884-08-07 15:00:00 NR 26.8333 125.864 main 438 438 __________P___ -1 26.8333 125.864 7 4 26
1884215N13130 1884 23 WP MM NOT_NAMED 1884-08-07 16:00:00 NR 26.9000 125.900 main 443 443 __________O___ -1 26.9000 125.900 7 4 24
1884215N13130 1884 23 WP MM NOT_NAMED 1884-08-07 18:00:00 NR 27.0307 125.964 main 456 449 __________P___ -1 27.0307 125.964 7 4 23
1884215N13130 1884 23 WP MM NOT_NAMED 1884-08-07 21:00:00 NR 27.2267 126.060 main 459 448 __________P___ -1 27.2267 126.060 7 4 24
1884215N13130 1884 23 WP MM NOT_NAMED 1884-08-08 00:00:00 NR 27.4254 126.159 main 457 447 __________P___ -1 27.4254 126.159 7 4 24
1884215N13130 1884 23 WP MM NOT_NAMED 1884-08-08 03:00:00 NR 27.6300 126.263 main 456 452 __________P___ -1 27.6300 126.263 7 5 24
1884215N13130 1884 23 WP MM NOT_NAMED 1884-08-08 04:00:00 NR 27.7000 126.300 main 452 447 __________O___ -1 27.7000 126.300 7 5 24
1884215N13130 1884 23 WP MM NOT_NAMED 1884-08-08 06:00:00 NR 27.8442 126.370 main 456 449 __________P___ -1 27.8442 126.370 7 5 23
1884215N13130 1884 23 WP MM NOT_NAMED 1884-08-08 09:00:00 NR 28.0669 126.481 main 455 452 __________P___ -1 28.0669 126.481 7 5 24
1884215N13130 1884 23 WP MM NOT_NAMED 1884-08-08 12:00:00 NR 28.2944 126.605 main 458 452 __________P___ -1 28.2944 126.605 7 5 27
1884215N13130 1884 23 WP MM NOT_NAMED 1884-08-08 15:00:00 NR 28.5237 126.747 main 452 437 __________P___ -1 28.5237 126.747 7 5 30
1884215N13130 1884 23 WP MM NOT_NAMED 1884-08-08 16:00:00 NR 28.6000 126.800 main 437 415 __________O___ -1 28.6000 126.800 7 5 33
1884215N13130 1884 23 WP MM NOT_NAMED 1884-08-08 18:00:00 NR 28.7518 126.914 main 415 385 __________P___ -1 28.7518 126.914 7 6 35
1884215N13130 1884 23 WP MM NOT_NAMED 1884-08-08 21:00:00 NR 28.9779 127.104 main 385 356 __________P___ -1 28.9779 127.104 7 6 38
1884215N13130 1884 23 WP MM NOT_NAMED 1884-08-09 00:00:00 NR 29.2023 127.311 main 356 327 __________P___ -1 29.2023 127.311 7 6 39
1884215N13130 1884 23 WP MM NOT_NAMED 1884-08-09 03:00:00 NR 29.4257 127.527 main 327 313 __________P___ -1 29.4257 127.527 7 6 41
1884215N13130 1884 23 WP MM NOT_NAMED 1884-08-09 04:00:00 NR 29.5000 127.600 main 313 __________O___ -1 29.5000 127.600 7 6 45

Digital Typhoon Data and Search

About IBTrACS Database

This database is a web-friendly format of International Best Track Archive for Climate Stewardship (IBTrACS), a global best track data archive curated by NOAA dating back to 1842.

Updated: 2021-12-03